createdAt,value
2023-05-18T00:01:28.240Z,3.60
2023-05-18T00:03:56.272Z,3.50
2023-05-18T00:06:25.397Z,3.50
2023-05-18T00:08:52.365Z,3.40
2023-05-18T00:11:21.474Z,3.50
2023-05-18T00:13:48.175Z,3.40
2023-05-18T00:16:16.138Z,3.50
2023-05-18T00:18:43.230Z,3.50
2023-05-18T00:21:10.325Z,3.50
2023-05-18T00:23:39.718Z,3.50
2023-05-18T00:26:06.492Z,3.50
2023-05-18T00:28:33.338Z,4.70
2023-05-18T00:31:00.628Z,3.50
2023-05-18T00:33:27.408Z,3.60
2023-05-18T00:35:54.296Z,3.60
2023-05-18T00:38:21.263Z,3.70
2023-05-18T00:40:48.284Z,3.70
2023-05-18T00:43:15.140Z,3.70
2023-05-18T00:45:41.874Z,3.80
2023-05-18T00:48:08.842Z,3.80
2023-05-18T00:50:36.458Z,3.90
2023-05-18T00:53:03.346Z,3.80
2023-05-18T00:55:30.566Z,3.70
2023-05-18T00:57:59.243Z,3.70
2023-05-18T01:00:26.201Z,3.60
2023-05-18T01:02:53.122Z,3.60
2023-05-18T01:05:22.348Z,3.60
2023-05-18T01:07:50.729Z,3.60
2023-05-18T01:10:18.788Z,3.50
2023-05-18T01:12:48.581Z,3.50
2023-05-18T01:15:20.308Z,3.40
2023-05-18T01:18:10.711Z,3.30
2023-05-18T01:20:41.399Z,3.20
2023-05-18T01:23:29.618Z,3.10
2023-05-18T01:25:56.412Z,3.00
2023-05-18T01:28:26.482Z,2.90
2023-05-18T01:30:53.898Z,2.90
2023-05-18T01:33:21.074Z,2.80
2023-05-18T01:35:51.111Z,2.80
2023-05-18T01:38:19.660Z,2.80
2023-05-18T01:41:01.597Z,2.80
2023-05-18T01:43:31.635Z,2.80
2023-05-18T01:46:01.562Z,2.80
2023-05-18T01:48:28.400Z,2.80
2023-05-18T01:50:57.748Z,2.70
2023-05-18T01:53:38.544Z,2.70
2023-05-18T01:56:07.916Z,2.70
2023-05-18T01:58:37.199Z,2.70
2023-05-18T02:01:04.630Z,2.70
2023-05-18T02:03:31.924Z,2.80
2023-05-18T02:05:58.665Z,2.90
2023-05-18T02:08:25.558Z,3.00
2023-05-18T02:10:52.465Z,3.00
2023-05-18T02:13:19.338Z,3.00
2023-05-18T02:15:46.102Z,2.90
2023-05-18T02:18:12.953Z,2.80
2023-05-18T02:20:40.817Z,2.90
2023-05-18T02:23:07.490Z,2.90
2023-05-18T02:25:34.356Z,2.90
2023-05-18T02:28:01.341Z,2.90
2023-05-18T02:30:29.314Z,2.90
2023-05-18T02:32:56.192Z,2.90
2023-05-18T02:35:22.965Z,3.00
2023-05-18T02:37:50.236Z,3.00
2023-05-18T02:40:17.789Z,3.10
2023-05-18T02:42:44.443Z,3.10
2023-05-18T02:45:11.799Z,3.10
2023-05-18T02:47:38.692Z,3.10
2023-05-18T02:50:05.947Z,3.10
2023-05-18T02:52:34.156Z,3.10
2023-05-18T02:55:01.318Z,3.10
2023-05-18T02:57:28.016Z,3.10
2023-05-18T02:59:54.686Z,3.00
2023-05-18T03:02:23.752Z,3.00
2023-05-18T03:04:57.620Z,2.90
2023-05-18T03:07:24.453Z,2.80
2023-05-18T03:09:51.546Z,2.80
2023-05-18T03:12:18.308Z,2.70
2023-05-18T03:14:45.274Z,2.70
2023-05-18T03:17:12.047Z,2.70
2023-05-18T03:19:38.956Z,2.80
2023-05-18T03:22:06.041Z,2.80
2023-05-18T03:24:40.465Z,2.80
2023-05-18T03:27:07.553Z,2.80
2023-05-18T03:29:37.322Z,2.70
2023-05-18T03:32:04.030Z,2.70
2023-05-18T03:34:30.846Z,2.70
2023-05-18T03:36:58.155Z,2.70
2023-05-18T03:39:24.948Z,2.70
2023-05-18T03:41:51.793Z,2.70
2023-05-18T03:44:18.569Z,2.70
2023-05-18T03:46:45.542Z,2.60
2023-05-18T03:49:12.515Z,2.60
2023-05-18T03:51:39.255Z,2.60
2023-05-18T03:54:05.999Z,2.60
2023-05-18T03:56:32.785Z,2.90
2023-05-18T03:59:00.095Z,4.30
2023-05-18T04:01:30.302Z,2.50
2023-05-18T04:03:57.907Z,2.50
2023-05-18T04:06:26.206Z,2.70
2023-05-18T04:08:53.717Z,3.00
2023-05-18T04:11:21.489Z,3.20
2023-05-18T04:13:48.307Z,3.50
2023-05-18T04:16:15.068Z,3.70
2023-05-18T04:18:41.955Z,3.70
2023-05-18T04:21:09.783Z,3.70
2023-05-18T04:23:40.866Z,3.60
2023-05-18T04:26:09.033Z,3.60
2023-05-18T04:28:37.724Z,3.60
2023-05-18T04:31:04.548Z,3.60
2023-05-18T04:33:31.612Z,3.60
2023-05-18T04:35:58.962Z,3.70
2023-05-18T04:38:25.673Z,3.80
2023-05-18T04:40:52.518Z,3.80
2023-05-18T04:43:19.567Z,3.90
2023-05-18T04:45:46.613Z,3.90
2023-05-18T04:48:14.252Z,3.90
2023-05-18T04:50:42.043Z,3.90
2023-05-18T04:53:09.400Z,3.90
2023-05-18T04:55:36.348Z,3.90
2023-05-18T04:58:03.691Z,3.90
2023-05-18T05:00:30.568Z,3.90
2023-05-18T05:02:58.341Z,4.00
2023-05-18T05:05:26.077Z,4.00
2023-05-18T05:07:56.115Z,4.10
2023-05-18T05:10:23.410Z,4.10
2023-05-18T05:12:50.587Z,4.10
2023-05-18T05:15:18.097Z,4.20
2023-05-18T05:17:46.303Z,4.30
2023-05-18T05:20:13.765Z,4.50
2023-05-18T05:22:40.600Z,7.10
2023-05-18T05:25:07.971Z,4.80
2023-05-18T05:27:37.080Z,4.90
2023-05-18T05:30:04.853Z,5.00
2023-05-18T05:32:31.587Z,5.10
2023-05-18T05:34:58.232Z,5.20
2023-05-18T05:37:25.081Z,5.30
2023-05-18T05:39:51.832Z,5.30
2023-05-18T05:42:18.696Z,5.40
2023-05-18T05:44:45.560Z,5.50
2023-05-18T05:47:12.607Z,5.60
2023-05-18T05:49:39.535Z,5.70
2023-05-18T05:52:06.581Z,5.80
2023-05-18T05:54:33.270Z,6.00
2023-05-18T05:57:00.319Z,6.10
2023-05-18T05:59:27.307Z,6.30
2023-05-18T06:01:54.010Z,6.30
2023-05-18T06:04:20.903Z,6.40
2023-05-18T06:06:47.944Z,6.60
2023-05-18T06:09:14.991Z,6.80
2023-05-18T06:11:42.056Z,6.90
2023-05-18T06:14:08.766Z,8.70
2023-05-18T06:16:35.580Z,7.00
2023-05-18T06:19:02.399Z,7.10
2023-05-18T06:21:29.221Z,7.20
2023-05-18T06:23:56.798Z,7.30
2023-05-18T06:26:23.803Z,7.40
2023-05-18T06:28:50.617Z,9.00
2023-05-18T06:31:19.117Z,7.70
2023-05-18T06:33:46.161Z,7.90
2023-05-18T06:36:12.833Z,7.90
2023-05-18T06:38:39.562Z,8.00
2023-05-18T06:41:06.202Z,8.10
2023-05-18T06:43:32.947Z,8.30
2023-05-18T06:45:59.702Z,8.40
2023-05-18T06:48:28.202Z,8.50
2023-05-18T06:50:55.522Z,10.60
2023-05-18T06:53:23.367Z,8.50
2023-05-18T06:55:50.247Z,8.60
2023-05-18T06:58:17.096Z,8.60
2023-05-18T07:00:43.930Z,11.80
2023-05-18T07:03:10.833Z,10.80
2023-05-18T07:05:39.474Z,8.80
2023-05-18T07:08:07.569Z,9.50
2023-05-18T07:10:35.874Z,9.00
2023-05-18T07:13:02.552Z,9.10
2023-05-18T07:15:29.584Z,9.20
2023-05-18T07:17:56.876Z,9.20
2023-05-18T07:20:26.144Z,9.40
2023-05-18T07:22:55.314Z,9.40
2023-05-18T07:25:22.643Z,11.80
2023-05-18T07:27:52.145Z,9.70
2023-05-18T07:30:19.021Z,12.30
2023-05-18T07:32:45.901Z,9.80
2023-05-18T07:35:12.821Z,12.80
2023-05-18T07:37:39.650Z,12.50
2023-05-18T07:40:06.907Z,10.90
2023-05-18T07:42:34.023Z,10.20
2023-05-18T07:45:00.704Z,11.70
2023-05-18T07:47:27.726Z,12.40
2023-05-18T07:49:54.615Z,10.50
2023-05-18T07:52:21.398Z,13.30
2023-05-18T07:54:48.374Z,10.70
2023-05-18T07:57:15.062Z,13.50
2023-05-18T07:59:41.752Z,11.00
2023-05-18T08:02:08.495Z,14.10
2023-05-18T08:04:35.311Z,11.10
2023-05-18T08:07:02.016Z,11.20
2023-05-18T08:09:28.768Z,12.10
2023-05-18T08:11:55.502Z,11.30
2023-05-18T08:14:22.207Z,13.50
2023-05-18T08:16:49.393Z,14.00
2023-05-18T08:19:16.719Z,13.70
2023-05-18T08:21:43.914Z,12.40
2023-05-18T08:24:10.596Z,11.40
2023-05-18T08:26:37.523Z,14.00
2023-05-18T08:29:10.198Z,12.90
2023-05-18T08:31:37.853Z,12.50
2023-05-18T08:34:05.192Z,12.90
2023-05-18T08:36:33.252Z,11.70
2023-05-18T08:39:00.281Z,11.60
2023-05-18T08:41:29.936Z,14.10
2023-05-18T08:44:04.907Z,11.80
2023-05-18T08:46:35.686Z,11.90
2023-05-18T08:49:03.584Z,11.80
2023-05-18T08:51:33.687Z,12.50
2023-05-18T08:54:00.741Z,15.00
2023-05-18T08:56:27.850Z,14.80
2023-05-18T08:58:57.989Z,14.90
2023-05-18T09:01:28.675Z,12.40
2023-05-18T09:03:57.247Z,14.30
2023-05-18T09:06:24.880Z,13.90
2023-05-18T09:08:52.572Z,13.40
2023-05-18T09:11:19.590Z,13.70
2023-05-18T09:13:46.444Z,13.30
2023-05-18T09:16:13.145Z,12.80
2023-05-18T09:18:40.073Z,12.90
2023-05-18T09:21:07.060Z,14.60
2023-05-18T09:23:33.787Z,13.10
2023-05-18T09:26:00.675Z,13.30
2023-05-18T09:28:31.234Z,15.30
2023-05-18T09:30:57.913Z,15.00
2023-05-18T09:33:24.658Z,13.60
2023-05-18T09:35:51.988Z,14.10
2023-05-18T09:38:22.403Z,14.60
2023-05-18T09:40:49.619Z,13.80
2023-05-18T09:43:20.187Z,17.00
2023-05-18T09:45:48.395Z,13.60
2023-05-18T09:48:16.156Z,14.90
2023-05-18T09:50:43.690Z,16.60
2023-05-18T09:53:11.024Z,15.30
2023-05-18T09:55:47.879Z,14.90
2023-05-18T09:58:14.788Z,13.60
2023-05-18T10:00:42.980Z,13.80
2023-05-18T10:03:20.534Z,14.10
2023-05-18T10:05:48.268Z,14.10
2023-05-18T10:08:15.363Z,15.00
2023-05-18T10:10:45.015Z,16.00
2023-05-18T10:13:18.111Z,17.10
2023-05-18T10:15:49.551Z,14.50
2023-05-18T10:18:42.552Z,14.50
2023-05-18T10:21:09.558Z,14.40
2023-05-18T10:23:37.166Z,16.40
2023-05-18T10:26:07.918Z,16.40
2023-05-18T10:28:53.644Z,14.50
2023-05-18T10:31:21.826Z,14.60
2023-05-18T10:33:50.651Z,14.70
2023-05-18T10:36:17.707Z,14.50
2023-05-18T10:38:45.609Z,15.80
2023-05-18T10:41:12.610Z,16.70
2023-05-18T10:43:40.203Z,18.00
2023-05-18T10:46:09.936Z,15.20
2023-05-18T10:48:40.771Z,15.10
2023-05-18T10:51:07.969Z,16.90
2023-05-18T10:53:36.687Z,15.40
2023-05-18T10:56:03.621Z,17.50
2023-05-18T10:58:30.994Z,15.40
2023-05-18T11:00:58.790Z,16.90
2023-05-18T11:03:27.060Z,15.80
2023-05-18T11:06:03.611Z,16.80
2023-05-18T11:08:30.316Z,15.40
2023-05-18T11:11:04.691Z,15.80
2023-05-18T11:13:32.151Z,15.50
2023-05-18T11:15:59.542Z,17.10
2023-05-18T11:18:34.454Z,15.30
2023-05-18T11:21:01.623Z,15.20
2023-05-18T11:23:34.582Z,15.80
2023-05-18T11:26:04.832Z,15.20
2023-05-18T11:28:31.827Z,14.90
2023-05-18T11:30:58.489Z,15.30
2023-05-18T11:33:27.481Z,16.30
2023-05-18T11:35:54.228Z,15.30
2023-05-18T11:38:20.931Z,16.10
2023-05-18T11:40:48.410Z,16.00
2023-05-18T11:43:22.080Z,17.00
2023-05-18T11:45:52.556Z,15.70
2023-05-18T11:48:21.378Z,15.90
2023-05-18T11:50:48.285Z,17.50
2023-05-18T11:53:15.641Z,18.70
2023-05-18T11:55:42.588Z,18.50
2023-05-18T11:58:10.253Z,16.90
2023-05-18T12:00:37.548Z,16.90
2023-05-18T12:03:04.811Z,15.90
2023-05-18T12:05:31.785Z,15.90
2023-05-18T12:07:58.864Z,15.80
2023-05-18T12:10:25.744Z,18.30
2023-05-18T12:12:52.939Z,16.00
2023-05-18T12:15:23.369Z,17.60
2023-05-18T12:17:51.148Z,16.40
2023-05-18T12:20:21.960Z,16.50
2023-05-18T12:22:53.787Z,16.30
2023-05-18T12:25:22.049Z,17.60
2023-05-18T12:27:49.390Z,16.00
2023-05-18T12:30:16.293Z,16.10
2023-05-18T12:32:51.059Z,16.30
2023-05-18T12:35:18.035Z,16.40
2023-05-18T12:37:46.034Z,16.30
2023-05-18T12:40:20.116Z,16.40
2023-05-18T12:42:53.840Z,16.20
2023-05-18T12:45:22.589Z,13.50
2023-05-18T12:47:54.758Z,18.20
2023-05-18T12:50:22.736Z,16.50
2023-05-18T12:52:50.343Z,16.50
2023-05-18T12:55:22.107Z,18.10
2023-05-18T12:58:19.374Z,16.40
2023-05-18T13:00:47.394Z,16.30
2023-05-18T13:03:16.309Z,17.70
2023-05-18T13:05:45.250Z,16.80
2023-05-18T13:08:18.201Z,16.80
2023-05-18T13:10:53.040Z,16.60
2023-05-18T13:13:24.999Z,16.50
2023-05-18T13:15:51.671Z,18.70
2023-05-18T13:18:19.573Z,16.30
2023-05-18T13:20:49.734Z,16.50
2023-05-18T13:23:21.210Z,18.10
2023-05-18T13:25:48.332Z,17.20
2023-05-18T13:28:16.279Z,16.80
2023-05-18T13:30:43.882Z,16.00
2023-05-18T13:33:13.301Z,16.90
2023-05-18T13:35:44.466Z,19.00
2023-05-18T13:38:11.665Z,18.00
2023-05-18T13:40:38.500Z,18.30
2023-05-18T13:43:09.153Z,19.00
2023-05-18T13:45:38.042Z,17.00
2023-05-18T13:48:10.167Z,19.40
2023-05-18T13:50:37.806Z,16.90
2023-05-18T13:53:04.785Z,17.70
2023-05-18T13:55:31.917Z,17.70
2023-05-18T13:57:58.763Z,16.80
2023-05-18T14:00:26.185Z,17.80
2023-05-18T14:02:56.989Z,16.70
2023-05-18T14:05:23.911Z,17.60
2023-05-18T14:07:52.410Z,16.50
2023-05-18T14:10:19.569Z,18.40
2023-05-18T14:12:46.490Z,17.40
2023-05-18T14:15:16.242Z,16.60
2023-05-18T14:17:43.309Z,17.50
2023-05-18T14:20:10.992Z,18.50
2023-05-18T14:22:37.868Z,16.50
2023-05-18T14:25:04.758Z,18.90
2023-05-18T14:27:32.115Z,16.40
2023-05-18T14:29:58.746Z,18.20
2023-05-18T14:32:25.469Z,17.60
2023-05-18T14:34:57.261Z,17.50
2023-05-18T14:37:25.042Z,16.50
2023-05-18T14:39:51.895Z,16.50
2023-05-18T14:42:20.726Z,16.50
2023-05-18T14:44:47.489Z,16.60
2023-05-18T14:47:14.253Z,16.90
2023-05-18T14:49:41.252Z,16.60
2023-05-18T14:52:08.223Z,16.60
2023-05-18T14:54:35.216Z,18.00
2023-05-18T14:57:01.962Z,16.60
2023-05-18T14:59:28.905Z,17.60
2023-05-18T15:01:56.034Z,16.30
2023-05-18T15:04:23.822Z,17.70
2023-05-18T15:06:50.852Z,16.20
2023-05-18T15:09:17.553Z,16.10
2023-05-18T15:11:44.324Z,16.10
2023-05-18T15:14:11.193Z,16.20
2023-05-18T15:16:38.760Z,16.60
2023-05-18T15:19:06.094Z,16.60
2023-05-18T15:21:32.958Z,16.00
2023-05-18T15:23:59.727Z,16.90
2023-05-18T15:26:26.953Z,17.70
2023-05-18T15:28:53.919Z,16.00
2023-05-18T15:31:20.794Z,16.10
2023-05-18T15:33:47.602Z,19.20
2023-05-18T15:36:14.345Z,15.90
2023-05-18T15:38:41.304Z,17.80
2023-05-18T15:41:08.045Z,17.40
2023-05-18T15:43:36.672Z,15.90
2023-05-18T15:46:03.669Z,15.80
2023-05-18T15:48:30.511Z,17.10
2023-05-18T15:50:57.352Z,17.30
2023-05-18T15:53:24.165Z,16.30
2023-05-18T15:55:56.655Z,15.60
2023-05-18T15:58:25.481Z,19.10
2023-05-18T16:00:52.378Z,17.00
2023-05-18T16:03:19.327Z,17.20
2023-05-18T16:05:46.169Z,17.20
2023-05-18T16:08:15.224Z,16.50
2023-05-18T16:10:41.928Z,15.40
2023-05-18T16:13:08.699Z,17.40
2023-05-18T16:15:35.566Z,16.50
2023-05-18T16:18:02.725Z,15.50
2023-05-18T16:20:29.951Z,15.50
2023-05-18T16:22:57.050Z,15.50
2023-05-18T16:25:24.630Z,15.50
2023-05-18T16:27:51.373Z,18.50
2023-05-18T16:30:18.628Z,16.60
2023-05-18T16:32:45.493Z,16.50
2023-05-18T16:35:12.421Z,15.30
2023-05-18T16:37:39.294Z,17.60
2023-05-18T16:40:06.875Z,15.20
2023-05-18T16:42:33.700Z,15.10
2023-05-18T16:45:00.541Z,16.50
2023-05-18T16:47:32.668Z,15.10
2023-05-18T16:50:00.255Z,16.10
2023-05-18T16:52:27.118Z,15.00
2023-05-18T16:54:53.958Z,15.10
2023-05-18T16:57:21.435Z,15.40
2023-05-18T16:59:48.419Z,17.90
2023-05-18T17:02:17.721Z,16.70
2023-05-18T17:04:49.719Z,16.80
2023-05-18T17:07:16.955Z,15.50
2023-05-18T17:09:43.819Z,14.80
2023-05-18T17:12:11.026Z,16.30
2023-05-18T17:14:38.424Z,15.90
2023-05-18T17:17:05.683Z,17.00
2023-05-18T17:19:34.771Z,14.60
2023-05-18T17:22:01.709Z,15.90
2023-05-18T17:24:28.644Z,14.70
2023-05-18T17:26:55.278Z,14.60
2023-05-18T17:29:22.110Z,14.60
2023-05-18T17:31:48.928Z,14.60
2023-05-18T17:34:15.985Z,16.90
2023-05-18T17:36:43.812Z,15.40
2023-05-18T17:39:10.785Z,14.50
2023-05-18T17:41:37.549Z,17.00
2023-05-18T17:44:04.292Z,17.00
2023-05-18T17:46:31.172Z,14.40
2023-05-18T17:48:58.053Z,16.60
2023-05-18T17:51:25.428Z,16.20
2023-05-18T17:53:52.105Z,15.30
2023-05-18T17:56:18.817Z,14.30
2023-05-18T17:58:45.964Z,15.20
2023-05-18T18:01:12.847Z,16.90
2023-05-18T18:03:39.714Z,16.80
2023-05-18T18:06:06.879Z,14.20
2023-05-18T18:08:33.807Z,14.10
2023-05-18T18:11:00.716Z,17.70
2023-05-18T18:13:27.395Z,17.10
2023-05-18T18:15:54.470Z,16.90
2023-05-18T18:18:21.547Z,15.40
2023-05-18T18:20:48.416Z,16.70
2023-05-18T18:23:17.199Z,14.40
2023-05-18T18:25:44.317Z,16.30
2023-05-18T18:28:15.308Z,15.50
2023-05-18T18:30:44.054Z,15.80
2023-05-18T18:33:11.387Z,15.40
2023-05-18T18:35:38.568Z,16.70
2023-05-18T18:38:05.510Z,13.80
2023-05-18T18:40:34.353Z,15.90
2023-05-18T18:43:01.396Z,14.70
2023-05-18T18:45:30.075Z,16.40
2023-05-18T18:47:56.901Z,13.80
2023-05-18T18:50:23.919Z,13.80
2023-05-18T18:52:50.757Z,16.50
2023-05-18T18:55:17.529Z,14.50
2023-05-18T18:57:44.394Z,15.60
2023-05-18T19:00:11.613Z,15.50
2023-05-18T19:02:38.549Z,13.60
2023-05-18T19:05:05.795Z,14.50
2023-05-18T19:07:33.038Z,13.50
2023-05-18T19:09:59.814Z,13.50
2023-05-18T19:12:26.874Z,16.10
2023-05-18T19:14:53.632Z,13.40
2023-05-18T19:17:20.435Z,13.30
2023-05-18T19:19:47.411Z,13.30
2023-05-18T19:22:14.585Z,15.20
2023-05-18T19:24:41.894Z,13.30
2023-05-18T19:27:08.619Z,13.30
2023-05-18T19:29:38.245Z,13.30
2023-05-18T19:32:06.518Z,13.30
2023-05-18T19:34:33.331Z,13.20
2023-05-18T19:37:00.140Z,14.90
2023-05-18T19:39:27.158Z,14.20
2023-05-18T19:41:54.006Z,15.80
2023-05-18T19:44:21.007Z,13.00
2023-05-18T19:46:47.781Z,13.00
2023-05-18T19:49:14.530Z,13.00
2023-05-18T19:51:41.270Z,12.90
2023-05-18T19:54:08.208Z,12.80
2023-05-18T19:56:36.357Z,12.70
2023-05-18T19:59:03.191Z,12.70
2023-05-18T20:01:30.052Z,12.80
2023-05-18T20:03:56.976Z,12.70
2023-05-18T20:06:23.858Z,12.70
2023-05-18T20:08:50.499Z,15.40
2023-05-18T20:11:18.898Z,12.80
2023-05-18T20:13:46.444Z,12.80
2023-05-18T20:16:13.896Z,12.90
2023-05-18T20:18:40.723Z,12.90
2023-05-18T20:21:07.700Z,12.90
2023-05-18T20:23:34.420Z,15.50
2023-05-18T20:26:01.192Z,12.90
2023-05-18T20:28:28.883Z,12.90
2023-05-18T20:30:55.746Z,12.80
2023-05-18T20:33:22.690Z,14.20
2023-05-18T20:35:49.980Z,15.30
2023-05-18T20:38:16.939Z,14.20
2023-05-18T20:40:44.351Z,13.50
2023-05-18T20:43:18.091Z,12.60
2023-05-18T20:45:49.574Z,12.70
2023-05-18T20:48:24.525Z,12.60
2023-05-18T20:50:51.929Z,13.80
2023-05-18T20:53:18.689Z,13.80
2023-05-18T20:55:48.863Z,12.90
2023-05-18T20:58:18.931Z,12.40
2023-05-18T21:00:46.746Z,12.40
2023-05-18T21:03:14.997Z,13.00
2023-05-18T21:05:43.271Z,12.30
2023-05-18T21:08:10.077Z,12.50
2023-05-18T21:10:36.826Z,12.10
2023-05-18T21:13:03.892Z,11.80
2023-05-18T21:15:31.828Z,11.60
2023-05-18T21:17:58.688Z,11.50
2023-05-18T21:20:25.548Z,11.40
2023-05-18T21:22:52.274Z,11.50
2023-05-18T21:25:19.728Z,11.20
2023-05-18T21:27:46.892Z,11.20
2023-05-18T21:30:13.935Z,11.20
2023-05-18T21:32:41.007Z,11.20
2023-05-18T21:35:08.144Z,11.20
2023-05-18T21:37:34.763Z,11.20
2023-05-18T21:40:01.801Z,11.20
2023-05-18T21:42:28.444Z,11.20
2023-05-18T21:44:55.297Z,11.20
2023-05-18T21:47:22.202Z,11.20
2023-05-18T21:49:49.076Z,12.30
2023-05-18T21:52:15.822Z,11.10
2023-05-18T21:54:42.579Z,11.10
2023-05-18T21:57:09.406Z,11.00
2023-05-18T21:59:36.184Z,11.00
2023-05-18T22:02:02.922Z,14.00
2023-05-18T22:04:29.678Z,12.20
2023-05-18T22:06:56.475Z,10.90
2023-05-18T22:09:23.306Z,10.90
2023-05-18T22:11:49.975Z,10.90
2023-05-18T22:14:18.215Z,10.90
2023-05-18T22:16:45.248Z,11.10
2023-05-18T22:19:12.149Z,10.90
2023-05-18T22:21:38.998Z,12.50
2023-05-18T22:24:05.935Z,10.90
2023-05-18T22:26:32.702Z,10.90
2023-05-18T22:28:59.435Z,10.90
2023-05-18T22:31:26.344Z,13.10
2023-05-18T22:33:54.033Z,10.90
2023-05-18T22:36:21.945Z,11.00
2023-05-18T22:38:49.727Z,11.00
2023-05-18T22:41:17.264Z,11.10
2023-05-18T22:43:44.411Z,11.10
2023-05-18T22:46:11.780Z,11.00
2023-05-18T22:48:39.655Z,13.70
2023-05-18T22:51:06.530Z,12.10
2023-05-18T22:53:33.367Z,11.10
2023-05-18T22:56:00.578Z,12.60
2023-05-18T22:58:27.598Z,13.70
2023-05-18T23:00:54.506Z,11.10
2023-05-18T23:03:22.451Z,11.50
2023-05-18T23:05:49.409Z,11.10
2023-05-18T23:08:16.253Z,11.00
2023-05-18T23:10:44.764Z,11.00
2023-05-18T23:13:11.995Z,12.30
2023-05-18T23:15:38.963Z,11.00
2023-05-18T23:18:09.544Z,13.50
2023-05-18T23:20:36.423Z,11.00
2023-05-18T23:23:03.260Z,10.90
2023-05-18T23:25:30.404Z,10.90
2023-05-18T23:27:57.292Z,10.90
2023-05-18T23:30:24.311Z,14.40
2023-05-18T23:32:53.153Z,10.80
2023-05-18T23:35:20.429Z,12.20
2023-05-18T23:37:49.172Z,10.80
2023-05-18T23:40:17.474Z,10.80
2023-05-18T23:42:44.460Z,10.70
2023-05-18T23:45:11.505Z,10.70
2023-05-18T23:47:38.436Z,10.70
2023-05-18T23:50:05.629Z,10.70
2023-05-18T23:52:32.464Z,10.70
2023-05-18T23:54:59.851Z,10.70
2023-05-18T23:57:26.875Z,10.70
2023-05-18T23:59:55.019Z,10.60
